Time;durP1;ratioP1;P1;durP2;ratioP2;P2;SDS_P1;SDS_P2;PMS_P1;PMS_P2;Temp;Humidity;BMP_temperature;BMP_pressure;BME280_temperature;BME280_humidity;BME280_pressure;Samples;Min_cycle;Max_cycle;Signal;HPM_P1;HPM_P2
2022/09/25 00:01:19;;;;;;;;;6.75;6.00;;;;;22.13;43.41;100955.84;4927312;28;47662;-47
2022/09/25 00:03:45;;;;;;;;;6.00;6.00;;;;;22.14;43.28;100958.38;4926420;28;45830;-50
2022/09/25 00:06:13;;;;;;;;;6.00;6.00;;;;;22.13;43.17;100959.31;4929334;28;45277;-50
2022/09/25 00:08:38;;;;;;;;;5.50;5.00;;;;;22.12;43.45;100965.53;4927684;28;45433;-49
2022/09/25 00:11:16;;;;;;;;;5.00;5.00;;;;;22.12;43.24;100970.81;4925151;28;46909;-49
2022/09/25 00:13:43;;;;;;;;;5.00;5.00;;;;;22.12;43.29;100972.59;4923433;28;45301;-48
2022/09/25 00:16:11;;;;;;;;;10.00;5.00;;;;;22.12;43.36;100970.81;4922060;28;45299;-50
2022/09/25 00:21:20;;;;;;;;;3.75;3.50;;;;;22.11;43.43;100958.53;4923033;28;45303;-48
2022/09/25 00:23:46;;;;;;;;;5.25;4.00;;;;;22.12;43.05;100970.81;4924669;28;45315;-49
2022/09/25 00:26:14;;;;;;;;;4.75;4.75;;;;;22.11;43.22;100978.81;4923723;28;45350;-49
2022/09/25 00:28:40;;;;;;;;;4.75;4.00;;;;;22.11;43.29;100974.38;4923721;28;45489;-51
2022/09/25 00:31:09;;;;;;;;;5.50;4.00;;;;;22.11;43.23;100974.38;4924032;28;45489;-47
2022/09/25 00:33:35;;;;;;;;;4.00;4.00;;;;;22.10;43.40;100975.34;4923212;28;45420;-47
2022/09/25 00:36:03;;;;;;;;;3.25;3.25;;;;;22.11;43.36;100973.53;4932502;28;45414;-50
2022/09/25 00:38:30;;;;;;;;;6.50;4.00;;;;;22.11;43.32;100979.66;4934204;28;45425;-48
2022/09/25 00:40:55;;;;;;;;;4.00;4.00;;;;;22.10;43.27;100975.34;4931430;28;47104;-48
2022/09/25 00:43:43;;;;;;;;;5.75;4.00;;;;;22.09;43.25;100971.84;4922560;28;45944;-50
2022/09/25 00:46:17;;;;;;;;;2.75;1.00;;;;;22.10;43.25;100972.72;4923334;28;45459;-49
2022/09/25 00:48:50;;;;;;;;;5.00;3.50;;;;;22.09;43.23;100968.38;4925029;28;45549;-48
2022/09/25 00:51:19;;;;;;;;;4.00;4.00;;;;;22.09;43.28;100963.09;4935431;28;46346;-48
2022/09/25 00:53:44;;;;;;;;;3.75;3.75;;;;;22.09;42.88;100965.72;4937561;28;45810;-50
2022/09/25 00:56:12;;;;;;;;;4.25;4.25;;;;;22.09;43.01;100963.94;4938593;28;45501;-48
2022/09/25 00:58:39;;;;;;;;;4.00;4.00;;;;;22.07;43.52;100962.31;4927690;28;45460;-50
2022/09/25 01:01:07;;;;;;;;;4.00;4.00;;;;;22.09;43.14;100957.81;4930724;28;46166;-50
2022/09/25 01:03:32;;;;;;;;;4.50;4.50;;;;;22.08;43.13;100961.38;4936235;28;45242;-51
2022/09/25 01:05:59;;;;;;;;;4.25;3.75;;;;;22.08;43.21;100964.88;4925067;28;45486;-47
2022/09/25 01:08:27;;;;;;;;;3.25;3.00;;;;;22.09;43.17;100968.38;4921725;28;45559;-52
2022/09/25 01:10:52;;;;;;;;;3.75;3.00;;;;;22.08;43.11;100964.03;4924365;28;46348;-49
2022/09/25 01:13:19;;;;;;;;;4.00;4.00;;;;;22.08;43.26;100958.75;4924517;28;45875;-49
2022/09/25 01:16:08;;;;;;;;;6.00;3.00;;;;;22.08;43.35;100964.03;4924633;28;45515;-47
2022/09/25 01:18:56;;;;;;;;;4.50;4.50;;;;;22.06;43.23;100958.81;4920760;28;45561;-49
2022/09/25 01:21:31;;;;;;;;;5.50;3.00;;;;;22.08;43.27;100966.66;4927246;28;47378;-48
2022/09/25 01:23:56;;;;;;;;;4.50;3.50;;;;;22.06;43.21;100965.91;4921536;28;45883;-50
2022/09/25 01:26:55;;;;;;;;;5.00;4.00;;;;;22.05;43.23;100965.03;4920658;28;45312;-47
2022/09/25 01:29:44;;;;;;;;;3.00;3.00;;;;;22.05;43.46;100961.56;4919677;28;45433;-47
2022/09/25 01:32:22;;;;;;;;;5.00;4.00;;;;;22.05;43.22;100966.84;4919389;28;45580;-51
2022/09/25 01:34:57;;;;;;;;;4.00;4.00;;;;;22.04;43.14;100966.00;4919276;28;46583;-51
2022/09/25 01:37:37;;;;;;;;;5.00;3.00;;;;;22.04;43.22;100958.09;4921822;28;45268;-47
2022/09/25 01:40:15;;;;;;;;;4.00;4.00;;;;;22.04;43.02;100962.50;4924494;28;45504;-47
2022/09/25 01:42:51;;;;;;;;;5.00;5.00;;;;;22.04;43.37;100952.81;4922452;28;46969;-48
2022/09/25 01:45:22;;;;;;;;;4.00;2.00;;;;;22.04;43.37;100951.94;4921357;28;45695;-47
2022/09/25 01:47:50;;;;;;;;;3.25;3.25;;;;;22.04;43.06;100951.94;4920383;28;45430;-49
2022/09/25 01:50:24;;;;;;;;;5.25;3.00;;;;;22.04;42.89;100951.94;4924057;28;45459;-50
2022/09/25 01:52:54;;;;;;;;;3.50;3.00;;;;;22.04;42.90;100947.53;4927510;28;46322;-50
2022/09/25 01:55:25;;;;;;;;;2.25;2.25;;;;;22.03;43.16;100958.16;4927470;28;45353;-49
2022/09/25 01:58:13;;;;;;;;;3.75;3.00;;;;;22.03;43.44;100959.03;4925187;28;45164;-51
2022/09/25 02:00:49;;;;;;;;;3.00;3.00;;;;;22.03;43.27;100952.88;4940201;28;44871;-49
2022/09/25 02:03:31;;;;;;;;;3.25;3.25;;;;;22.03;43.24;100963.44;4924785;28;46201;-50
2022/09/25 02:06:01;;;;;;;;;4.00;3.00;;;;;22.02;42.92;100965.25;4920480;28;45440;-51
2022/09/25 02:08:33;;;;;;;;;5.75;3.00;;;;;22.02;43.22;100965.25;4925485;28;45392;-48
2022/09/25 02:11:02;;;;;;;;;2.50;2.50;;;;;22.02;43.17;100965.25;4925816;28;46113;-52
2022/09/25 02:13:36;;;;;;;;;4.00;4.00;;;;;22.03;43.29;100968.72;4924409;28;45945;-49
2022/09/25 02:16:09;;;;;;;;;3.00;2.25;;;;;22.02;43.44;100970.53;4920718;28;45469;-51
2022/09/25 02:21:37;;;;;;;;;3.00;3.00;;;;;22.02;43.03;100964.38;4921109;28;45420;-49
2022/09/25 02:24:21;;;;;;;;;5.00;3.00;;;;;22.02;43.09;100959.97;4920072;28;47174;-47
2022/09/25 02:26:48;;;;;;;;;2.75;2.75;;;;;22.02;43.18;100965.25;4919608;28;45738;-48
2022/09/25 02:29:14;;;;;;;;;3.00;3.00;;;;;22.02;43.22;100953.81;4926448;28;45364;-48
2022/09/25 02:32:02;;;;;;;;;2.50;2.50;;;;;22.01;43.39;100963.53;4928125;28;45915;-45
2022/09/25 02:34:28;;;;;;;;;3.00;3.00;;;;;22.02;43.35;100964.38;4924466;28;46183;-47
2022/09/25 02:36:54;;;;;;;;;4.00;4.00;;;;;22.01;43.16;100958.25;4922305;28;45350;-50
2022/09/25 02:39:23;;;;;;;;;3.25;3.00;;;;;22.01;43.28;100952.13;4921755;28;45472;-47
2022/09/25 02:42:26;;;;;;;;;3.50;3.00;;;;;22.01;43.08;100949.47;4919424;28;45580;-51
2022/09/25 02:45:19;;;;;;;;;3.50;3.50;;;;;22.00;42.88;100961.84;4923654;28;45925;-48
2022/09/25 02:48:21;;;;;;;;;3.00;3.00;;;;;22.01;42.96;100957.41;4927602;28;45252;-48
2022/09/25 02:51:17;;;;;;;;;2.75;2.75;;;;;22.00;43.02;100960.97;4923416;28;45424;-50
2022/09/25 02:53:50;;;;;;;;;3.75;2.00;;;;;22.00;43.29;100960.97;4927848;28;45357;-46
2022/09/25 02:56:23;;;;;;;;;4.00;3.00;;;;;22.01;43.35;100962.69;4929618;28;45842;-49
2022/09/25 02:58:57;;;;;;;;;4.50;4.50;;;;;21.99;43.39;100968.06;4928832;28;45822;-49
2022/09/25 03:01:26;;;;;;;;;3.00;3.00;;;;;22.00;43.19;100964.47;4926234;28;45346;-51
2022/09/25 03:03:55;;;;;;;;;4.00;3.00;;;;;22.00;43.09;100972.41;4931260;28;44772;-48
2022/09/25 03:06:24;;;;;;;;;3.00;3.00;;;;;22.00;43.08;100971.53;4941182;28;45378;-49
2022/09/25 03:08:55;;;;;;;;;3.00;3.00;;;;;22.00;43.22;100982.97;4933682;28;45839;-53
2022/09/25 03:11:22;;;;;;;;;2.00;2.00;;;;;22.01;43.01;100978.50;4929202;28;45338;-46
2022/09/25 03:13:59;;;;;;;;;1.00;1.00;;;;;22.00;43.45;100982.09;4924778;28;45495;-50
2022/09/25 03:16:47;;;;;;;;;4.00;2.25;;;;;22.00;43.41;100985.59;4921717;28;47068;-52
2022/09/25 03:19:13;;;;;;;;;2.00;2.00;;;;;22.00;43.08;100979.44;4918347;28;45406;-45
2022/09/25 03:21:39;;;;;;;;;3.00;3.00;;;;;21.99;43.17;100980.41;4919699;28;45421;-50
2022/09/25 03:24:05;;;;;;;;;3.25;3.25;;;;;21.99;43.11;100983.88;4918452;28;45386;-50
2022/09/25 03:26:30;;;;;;;;;3.25;2.75;;;;;22.00;43.04;100976.81;4918353;28;47009;-47
2022/09/25 03:28:56;;;;;;;;;2.00;2.00;;;;;21.99;43.17;100983.06;4918987;28;45361;-49
2022/09/25 03:31:22;;;;;;;;;3.00;3.00;;;;;21.99;43.13;100980.41;4924722;28;45310;-49
2022/09/25 03:33:47;;;;;;;;;2.00;2.00;;;;;21.99;43.44;100983.88;4921955;28;45232;-52
2022/09/25 03:36:19;;;;;;;;;3.50;3.00;;;;;21.99;43.43;101001.53;4922536;28;46328;-49
2022/09/25 03:38:47;;;;;;;;;3.00;3.00;;;;;21.99;43.32;100993.63;4920084;28;45784;-48
2022/09/25 03:41:15;;;;;;;;;3.75;2.50;;;;;21.99;43.20;101001.53;4928865;28;45205;-49
2022/09/25 03:43:42;;;;;;;;;3.50;2.00;;;;;21.99;43.33;100998.91;4933187;28;45401;-48
2022/09/25 03:46:11;;;;;;;;;3.00;3.00;;;;;21.98;43.30;101002.47;4928133;28;45452;-49
2022/09/25 03:48:37;;;;;;;;;2.50;2.50;;;;;21.98;42.90;101005.94;4923502;28;45708;-46
2022/09/25 03:51:04;;;;;;;;;1.00;1.00;;;;;21.98;43.13;101005.94;4932460;28;45541;-48
2022/09/25 03:53:31;;;;;;;;;4.00;4.00;;;;;21.98;43.24;101000.66;4937901;28;44828;-46
2022/09/25 03:55:56;;;;;;;;;2.00;2.00;;;;;21.98;43.06;100995.38;4937088;28;45400;-50
2022/09/25 03:58:21;;;;;;;;;2.75;2.75;;;;;21.98;43.16;101003.31;4937095;28;44759;-50
2022/09/25 04:00:47;;;;;;;;;2.75;2.75;;;;;21.98;43.43;100999.81;4936817;28;47293;-48
2022/09/25 04:03:14;;;;;;;;;3.00;3.00;;;;;21.97;43.44;101001.59;4936318;28;44910;-49
2022/09/25 04:05:40;;;;;;;;;2.75;2.75;;;;;21.99;43.07;101009.44;4919740;28;46459;-47
2022/09/25 04:08:06;;;;;;;;;3.25;3.25;;;;;21.97;43.17;101004.25;4918552;28;45223;-49
2022/09/25 04:10:32;;;;;;;;;2.00;2.00;;;;;21.97;43.30;101004.25;4924242;28;56767;-46
2022/09/25 04:12:57;;;;;;;;;3.00;3.00;;;;;21.98;43.14;101002.47;4928141;28;45657;-46
2022/09/25 04:15:23;;;;;;;;;3.00;2.50;;;;;21.98;43.13;101005.09;4927033;28;45421;-47
2022/09/25 04:17:50;;;;;;;;;5.75;4.00;;;;;21.97;43.33;101004.25;4923144;28;45782;-48
2022/09/25 04:20:15;;;;;;;;;4.00;4.00;;;;;21.97;43.27;101008.69;4922699;28;45477;-51
2022/09/25 04:22:41;;;;;;;;;3.50;3.00;;;;;21.97;43.13;101006.03;4931402;28;45472;-46
2022/09/25 04:25:08;;;;;;;;;3.00;3.00;;;;;21.97;43.13;101003.41;4931099;28;45291;-49
2022/09/25 04:27:35;;;;;;;;;3.00;3.00;;;;;21.96;43.14;101005.19;4922867;28;45188;-49
2022/09/25 04:30:01;;;;;;;;;3.00;3.00;;;;;21.96;43.26;100999.06;4921817;28;45330;-48
2022/09/25 04:35:10;;;;;;;;;2.25;2.00;;;;;21.96;43.05;101001.69;4921424;28;45503;-48
2022/09/25 04:37:35;;;;;;;;;3.00;3.00;;;;;21.96;43.14;101002.53;4925401;28;45279;-51
2022/09/25 04:40:01;;;;;;;;;3.00;2.00;;;;;21.96;43.34;101006.97;4923875;28;45182;-50
2022/09/25 04:42:26;;;;;;;;;3.00;3.00;;;;;21.96;43.13;101009.63;4921637;28;45167;-52
2022/09/25 04:44:53;;;;;;;;;2.25;2.25;;;;;21.96;43.31;101006.97;4919668;28;55469;-46
2022/09/25 04:47:24;;;;;;;;;2.25;2.25;;;;;21.93;43.19;101006.22;4920312;28;45472;-51
2022/09/25 04:49:51;;;;;;;;;2.00;2.00;;;;;21.93;43.15;101018.56;4920794;28;45295;-50
2022/09/25 04:52:19;;;;;;;;;3.00;3.00;;;;;21.95;42.94;101010.56;4922166;28;45755;-48
2022/09/25 04:54:44;;;;;;;;;4.00;3.00;;;;;21.95;43.19;101015.84;4922122;28;46084;-48
2022/09/25 04:57:14;;;;;;;;;2.50;2.50;;;;;21.95;43.21;101021.09;4930607;28;45302;-48
2022/09/25 04:59:40;;;;;;;;;3.00;3.00;;;;;21.93;43.32;101016.78;4934453;28;45425;-51
2022/09/25 05:02:05;;;;;;;;;3.25;2.25;;;;;21.95;43.12;101026.38;4934588;28;45181;-48
2022/09/25 05:04:31;;;;;;;;;3.00;3.00;;;;;21.95;42.93;101026.38;4928704;28;45451;-48
2022/09/25 05:06:56;;;;;;;;;2.00;2.00;;;;;21.93;43.31;101029.97;4926557;28;44794;-47
2022/09/25 05:09:21;;;;;;;;;1.25;1.25;;;;;21.93;43.13;101035.25;4929117;28;54092;-49
2022/09/25 05:11:47;;;;;;;;;5.00;4.00;;;;;21.93;43.08;101035.25;4921334;28;47147;-49
2022/09/25 05:14:12;;;;;;;;;2.25;2.00;;;;;21.93;43.33;101035.25;4921600;28;46212;-53
2022/09/25 05:16:38;;;;;;;;;4.00;3.00;;;;;21.93;43.25;101040.53;4925585;28;45311;-46
2022/09/25 05:19:03;;;;;;;;;3.00;3.00;;;;;21.94;43.05;101038.72;4928575;28;45299;-51
2022/09/25 05:21:29;;;;;;;;;1.00;1.00;;;;;21.92;43.29;101038.81;4942149;28;45649;-44
2022/09/25 05:23:55;;;;;;;;;3.00;3.00;;;;;21.92;43.23;101038.81;4941603;28;45932;-48
2022/09/25 05:26:22;;;;;;;;;2.25;2.25;;;;;21.93;43.48;101040.53;4936811;28;45463;-51
2022/09/25 05:28:49;;;;;;;;;5.00;3.75;;;;;21.93;43.40;101048.44;4935023;28;45458;-48
2022/09/25 05:31:15;;;;;;;;;3.75;3.00;;;;;21.91;43.06;101045.03;4938896;28;45584;-46
2022/09/25 05:33:42;;;;;;;;;4.50;3.25;;;;;21.89;43.30;101049.53;4937281;28;45214;-46
2022/09/25 05:36:08;;;;;;;;;4.00;3.00;;;;;21.89;43.17;101044.25;4933346;28;45230;-46
2022/09/25 05:38:35;;;;;;;;;4.00;3.00;;;;;21.88;43.36;101045.19;4929084;28;45280;-52
2022/09/25 05:41:06;;;;;;;;;3.25;3.25;;;;;21.87;43.13;101051.44;4931003;28;45481;-48
2022/09/25 05:43:33;;;;;;;;;4.00;4.00;;;;;21.86;43.22;101039.19;4921920;28;46345;-51
2022/09/25 05:45:59;;;;;;;;;4.00;4.00;;;;;21.85;43.17;101037.50;4920576;28;45991;-49
2022/09/25 05:48:24;;;;;;;;;4.00;4.00;;;;;21.84;43.18;101046.34;4918498;28;45437;-48
2022/09/25 05:50:55;;;;;;;;;5.00;5.00;;;;;21.84;43.10;101048.97;4927046;28;45469;-44
2022/09/25 05:53:20;;;;;;;;;5.50;4.00;;;;;21.83;42.98;101060.47;4922659;28;46562;-48
2022/09/25 05:55:54;;;;;;;;;5.75;4.75;;;;;21.81;42.77;101057.06;4920687;28;45367;-44
2022/09/25 05:58:23;;;;;;;;;4.00;4.00;;;;;21.80;43.07;101062.44;4920851;28;45506;-49
2022/09/25 06:00:48;;;;;;;;;5.00;5.00;;;;;21.80;43.25;101065.91;4923899;28;45544;-49
2022/09/25 06:03:13;;;;;;;;;4.50;4.50;;;;;21.78;42.96;101062.50;4927129;28;45413;-55
2022/09/25 06:05:39;;;;;;;;;4.75;3.25;;;;;21.79;43.03;101064.19;4925382;28;45460;-53
2022/09/25 06:08:05;;;;;;;;;4.25;3.00;;;;;21.77;43.11;101060.81;4920084;28;45418;-48
2022/09/25 06:10:31;;;;;;;;;3.50;2.50;;;;;21.75;42.76;101058.25;4922123;28;45417;-48
2022/09/25 06:12:58;;;;;;;;;4.50;3.75;;;;;21.74;42.73;101063.63;4920737;28;47347;-52
2022/09/25 06:15:27;;;;;;;;;5.25;5.25;;;;;21.74;42.34;101068.91;4927427;28;45349;-49
2022/09/25 06:17:53;;;;;;;;;6.00;4.50;;;;;21.72;42.86;101073.41;4940008;28;44664;-50
2022/09/25 06:20:21;;;;;;;;;5.00;4.00;;;;;21.72;42.92;101076.88;4927220;28;45539;-48
2022/09/25 06:22:53;;;;;;;;;5.00;3.00;;;;;21.70;42.75;101081.44;4920167;28;46099;-48
2022/09/25 06:25:18;;;;;;;;;4.00;4.00;;;;;21.70;42.53;101077.91;4922479;28;45977;-49
2022/09/25 06:27:44;;;;;;;;;4.00;4.00;;;;;21.68;43.01;101085.06;4931332;28;45756;-50
2022/09/25 06:30:10;;;;;;;;;4.75;4.25;;;;;21.69;42.72;101078.84;4930289;28;45833;-46
2022/09/25 06:32:35;;;;;;;;;4.50;4.00;;;;;21.68;42.54;101077.16;4926583;28;46046;-51
2022/09/25 06:35:00;;;;;;;;;4.33;4.33;;;;;21.67;42.50;101088.63;4919971;28;58888;-51
2022/09/25 06:37:25;;;;;;;;;3.75;3.75;;;;;21.65;42.78;101087.91;4918099;28;45480;-51
2022/09/25 06:39:51;;;;;;;;;4.00;4.00;;;;;21.64;42.33;101086.19;4919528;28;45589;-50
2022/09/25 06:42:16;;;;;;;;;5.50;5.00;;;;;21.62;42.60;101084.50;4922429;28;45498;-50
2022/09/25 06:44:42;;;;;;;;;4.75;4.00;;;;;21.62;42.72;101092.41;4917311;28;49926;-45
2022/09/25 06:47:10;;;;;;;;;4.25;3.00;;;;;21.61;42.63;101095.09;4924657;28;45327;-49
2022/09/25 06:49:35;;;;;;;;;3.25;3.25;;;;;21.61;42.58;101092.47;4926021;28;45639;-47
2022/09/25 06:52:01;;;;;;;;;4.00;4.00;;;;;21.59;42.58;101086.47;4926738;28;46271;-51
2022/09/25 06:54:29;;;;;;;;;3.00;3.00;;;;;21.58;42.62;101082.91;4925548;28;45180;-47
2022/09/25 06:56:55;;;;;;;;;4.75;4.00;;;;;21.58;42.43;101082.91;4925898;28;45322;-48
2022/09/25 06:59:20;;;;;;;;;5.50;4.50;;;;;21.58;42.22;101090.00;4908419;28;45312;-50
2022/09/25 07:01:45;;;;;;;;;3.75;3.75;;;;;21.57;42.07;101086.50;4932941;28;46241;-49
2022/09/25 07:04:12;;;;;;;;;4.00;4.00;;;;;21.55;42.40;101093.63;4936095;28;44899;-46
2022/09/25 07:06:37;;;;;;;;;2.25;2.25;;;;;21.56;42.27;101090.06;4924141;28;45456;-48
2022/09/25 07:09:03;;;;;;;;;2.50;2.50;;;;;21.54;42.29;101091.97;4922324;28;45616;-50
2022/09/25 07:11:30;;;;;;;;;5.00;5.00;;;;;21.53;42.22;101100.81;4927886;28;45305;-48
2022/09/25 07:13:56;;;;;;;;;3.50;3.50;;;;;21.53;41.90;101100.81;4932579;28;45841;-51
2022/09/25 07:16:23;;;;;;;;;4.50;3.75;;;;;21.53;41.75;101098.16;4921167;28;45286;-48
2022/09/25 07:18:52;;;;;;;;;3.00;3.00;;;;;21.55;42.07;101096.28;4922856;28;45445;-47
2022/09/25 07:21:19;;;;;;;;;5.00;4.00;;;;;21.56;42.20;101094.50;4921439;28;45445;-49
2022/09/25 07:23:49;;;;;;;;;2.25;2.25;;;;;21.58;42.10;101093.47;4921087;28;45238;-47
2022/09/25 07:26:23;;;;;;;;;3.25;2.25;;;;;21.60;41.67;101099.53;4918825;28;45401;-49
2022/09/25 07:28:54;;;;;;;;;5.25;2.25;;;;;21.62;41.99;101092.41;4923745;28;45308;-48
2022/09/25 07:31:22;;;;;;;;;3.00;3.00;;;;;21.63;41.92;101098.50;4928268;28;45392;-50
2022/09/25 07:33:48;;;;;;;;;2.75;2.75;;;;;21.64;41.89;101096.75;4925585;28;45749;-49
2022/09/25 07:36:15;;;;;;;;;4.00;2.75;;;;;21.65;42.03;101107.19;4918756;28;45385;-47
2022/09/25 07:38:41;;;;;;;;;4.00;2.25;;;;;21.66;41.92;101110.72;4918154;28;45377;-48
2022/09/25 07:41:10;;;;;;;;;2.50;2.50;;;;;21.66;42.31;101110.72;4917148;28;45544;-49
2022/09/25 07:43:38;;;;;;;;;2.00;2.00;;;;;21.66;42.16;101110.72;4919497;28;45185;-46
2022/09/25 07:46:05;;;;;;;;;4.50;3.00;;;;;21.67;41.76;101109.75;4921276;28;45310;-47
2022/09/25 07:48:30;;;;;;;;;2.00;2.00;;;;;21.68;41.91;101120.22;4922618;28;45391;-47
2022/09/25 07:51:03;;;;;;;;;2.50;2.00;;;;;21.69;41.70;101121.06;4921045;28;46134;-48
2022/09/25 07:53:28;;;;;;;;;2.75;2.75;;;;;21.70;41.67;101126.28;4921876;28;45377;-51
2022/09/25 07:55:58;;;;;;;;;1.75;1.75;;;;;21.70;41.80;101122.78;4929212;28;45827;-49
2022/09/25 07:58:25;;;;;;;;;4.75;3.25;;;;;21.71;41.77;101124.47;4927859;28;45420;-48
2022/09/25 08:00:51;;;;;;;;;2.00;2.00;;;;;21.72;41.95;101120.91;4924809;28;47201;-47
2022/09/25 08:03:17;;;;;;;;;2.00;2.00;;;;;21.74;41.70;101119.88;4924319;28;45985;-46
2022/09/25 08:05:42;;;;;;;;;3.00;3.00;;;;;21.75;41.79;101121.56;4924145;28;53763;-45
2022/09/25 08:08:08;;;;;;;;;3.00;1.50;;;;;21.75;41.58;101120.75;4925334;28;45531;-48
2022/09/25 08:10:33;;;;;;;;;2.50;2.00;;;;;21.76;41.97;101115.38;4925508;28;45513;-49
2022/09/25 08:12:59;;;;;;;;;1.75;1.75;;;;;21.78;41.44;101117.91;4924923;28;45463;-51
2022/09/25 08:15:24;;;;;;;;;2.50;2.00;;;;;21.78;41.62;101115.25;4924563;28;45399;-48
2022/09/25 08:17:50;;;;;;;;;2.75;2.00;;;;;21.80;41.61;101123.94;4923357;28;45358;-48
2022/09/25 08:20:16;;;;;;;;;2.00;1.75;;;;;21.81;41.68;101119.53;4927103;28;46105;-51
2022/09/25 08:22:41;;;;;;;;;2.75;2.25;;;;;21.82;41.83;101121.25;4932836;28;44715;-46
2022/09/25 08:25:06;;;;;;;;;1.25;1.00;;;;;21.82;41.50;101126.53;4926448;28;45400;-49
2022/09/25 08:27:38;;;;;;;;;2.75;2.00;;;;;21.83;41.90;101123.78;4926168;28;45581;-47
2022/09/25 08:30:04;;;;;;;;;2.75;2.25;;;;;21.82;41.80;101126.53;4924794;28;46340;-47
2022/09/25 08:32:32;;;;;;;;;3.00;1.00;;;;;21.82;41.56;101129.16;4931761;28;45403;-48
2022/09/25 08:34:58;;;;;;;;;1.50;1.50;;;;;21.82;41.74;101131.81;4953117;28;45324;-47
2022/09/25 08:37:23;;;;;;;;;1.00;1.00;;;;;21.82;41.90;101127.38;4943894;28;45274;-49
2022/09/25 08:39:48;;;;;;;;;2.00;2.00;;;;;21.84;41.76;101116.72;4939673;28;46032;-51
2022/09/25 08:42:34;;;;;;;;;2.75;2.00;;;;;21.84;41.89;101127.25;4943925;28;45191;-47
2022/09/25 08:50:39;;;;;;;;;2.00;2.00;;;;;21.84;41.79;101127.25;4925076;28;45355;-47
2022/09/25 08:53:13;;;;;;;;;2.50;2.00;;;;;21.85;42.00;101126.31;4927886;28;45260;-50
2022/09/25 08:58:28;;;;;;;;;5.25;2.00;;;;;21.85;41.68;101121.91;4925248;28;45441;-48
2022/09/25 09:00:59;;;;;;;;;2.00;1.00;;;;;21.85;41.95;101116.63;4922706;28;45468;-46
2022/09/25 09:03:29;;;;;;;;;2.50;2.00;;;;;21.86;41.78;101121.00;4921709;28;45320;-48
2022/09/25 09:06:06;;;;;;;;;3.50;1.00;;;;;21.90;42.03;101126.94;4921693;28;45430;-45
2022/09/25 09:08:37;;;;;;;;;3.00;1.00;;;;;21.90;41.91;101117.22;4921233;28;45485;-49
2022/09/25 09:11:03;;;;;;;;;4.00;1.25;;;;;22.01;42.13;101124.53;4920292;28;46012;-60
2022/09/25 09:13:42;;;;;;;;;4.50;1.00;;;;;22.09;42.20;101126.75;4919734;28;45492;-53
2022/09/25 09:16:25;;;;;;;;;2.25;1.00;;;;;22.16;41.89;101125.44;4923732;28;45489;-52
2022/09/25 09:18:53;;;;;;;;;2.00;1.75;;;;;22.22;42.02;101127.72;4921882;28;45620;-45
2022/09/25 09:21:42;;;;;;;;;2.00;1.00;;;;;22.29;41.95;101138.78;4918794;28;46837;-49
2022/09/25 09:24:27;;;;;;;;;3.25;1.00;;;;;22.36;42.04;101137.50;4921930;28;45330;-50
2022/09/25 09:27:11;;;;;;;;;4.75;1.25;;;;;22.43;42.10;101135.38;4928025;28;45358;-51
2022/09/25 09:30:05;;;;;;;;;5.00;2.00;;;;;22.50;41.90;101135.84;4926399;28;45502;-51
2022/09/25 09:32:30;;;;;;;;;5.00;1.00;;;;;22.57;41.93;101133.69;4928978;28;46626;-53
2022/09/25 09:35:25;;;;;;;;;2.00;2.00;;;;;22.62;41.87;101129.00;4928454;28;45294;-48
2022/09/25 09:38:00;;;;;;;;;2.00;2.00;;;;;22.68;41.98;101132.13;4925487;28;45295;-49
2022/09/25 09:40:36;;;;;;;;;1.75;1.00;;;;;22.74;41.89;101132.69;4926710;28;45495;-50
2022/09/25 09:43:30;;;;;;;;;1.00;1.00;;;;;22.80;41.72;101129.69;4920896;28;45485;-45
2022/09/25 09:46:14;;;;;;;;;0.25;0.00;;;;;22.85;41.48;101125.81;4927604;28;45314;-47
2022/09/25 09:49:06;;;;;;;;;1.25;1.00;;;;;22.92;41.81;101128.06;4925744;28;45206;-46
2022/09/25 09:51:38;;;;;;;;;1.00;1.00;;;;;22.97;41.41;101128.66;4923182;28;45392;-48
2022/09/25 09:54:20;;;;;;;;;0.50;0.25;;;;;23.02;41.44;101134.50;4923377;28;46075;-46
2022/09/25 09:56:49;;;;;;;;;2.25;1.00;;;;;23.07;41.23;101128.94;4925198;28;45676;-47
2022/09/25 09:59:17;;;;;;;;;2.50;1.75;;;;;23.10;41.40;101121.66;4929741;28;45754;-51
2022/09/25 10:01:48;;;;;;;;;3.75;1.00;;;;;23.14;41.54;101132.91;4934093;28;44859;-49
2022/09/25 10:04:25;;;;;;;;;3.00;2.00;;;;;23.18;40.88;101126.47;4932078;28;46282;-50
2022/09/25 10:06:56;;;;;;;;;0.25;0.25;;;;;23.21;41.29;101128.09;4921607;28;45812;-50
2022/09/25 10:09:24;;;;;;;;;1.50;1.00;;;;;23.23;41.35;101129.72;4920370;28;45429;-48
2022/09/25 10:12:15;;;;;;;;;5.00;3.00;;;;;23.26;41.09;101131.31;4919446;28;45432;-49
2022/09/25 10:14:45;;;;;;;;;1.00;1.00;;;;;23.28;40.95;101127.63;4899269;28;46536;-50
2022/09/25 10:17:11;;;;;;;;;3.25;1.50;;;;;23.29;40.89;101125.84;4923277;28;45735;-48
2022/09/25 10:19:54;;;;;;;;;1.00;1.00;;;;;23.29;40.62;101117.91;4924172;28;45802;-46
2022/09/25 10:22:24;;;;;;;;;4.00;1.00;;;;;23.30;40.83;101122.25;4922790;28;45508;-47
2022/09/25 10:24:54;;;;;;;;;0.50;0.50;;;;;23.31;40.72;101108.94;4928285;28;46585;-47
2022/09/25 10:27:44;;;;;;;;;0.50;0.25;;;;;23.32;40.83;101104.47;4940462;28;45314;-52
2022/09/25 10:30:10;;;;;;;;;2.00;1.00;;;;;23.34;40.61;101112.34;4921898;28;45327;-51
2022/09/25 10:33:01;;;;;;;;;1.33;1.33;;;;;23.34;40.79;101099.09;4920826;28;45624;-52
2022/09/25 10:35:40;;;;;;;;;3.75;1.00;;;;;23.35;40.52;101111.38;4918827;28;46781;-54
2022/09/25 10:38:19;;;;;;;;;1.00;1.00;;;;;23.33;40.41;101100.06;4919130;28;45778;-57
2022/09/25 10:40:46;;;;;;;;;6.00;1.50;;;;;23.33;40.29;101103.53;4924842;28;45900;-57
2022/09/25 10:43:19;;;;;;;;;3.00;1.00;;;;;23.34;40.53;101096.47;4929460;28;45444;-50
2022/09/25 10:45:52;;;;;;;;;0.00;0.00;;;;;23.33;41.00;101098.25;4927652;28;45437;-51
2022/09/25 10:51:22;;;;;;;;;1.50;1.00;;;;;23.33;40.35;101098.25;4922681;28;45413;-52
2022/09/25 10:54:08;;;;;;;;;0.00;0.00;;;;;23.32;40.41;101099.19;4920338;28;45540;-57
2022/09/25 10:56:37;;;;;;;;;1.75;1.00;;;;;23.31;40.82;101094.88;4926363;28;46581;-54
2022/09/25 10:59:13;;;;;;;;;2.00;0.50;;;;;23.31;40.23;101090.41;4934456;28;45377;-48
2022/09/25 11:01:41;;;;;;;;;3.25;1.25;;;;;23.31;40.27;101094.88;4924698;28;45385;-48
2022/09/25 11:04:21;;;;;;;;;2.00;1.00;;;;;23.30;40.34;101087.88;4920824;28;45635;-49
2022/09/25 11:06:52;;;;;;;;;0.00;0.00;;;;;23.30;40.37;101093.16;4921738;28;46135;-49
2022/09/25 11:09:22;;;;;;;;;0.50;0.00;;;;;23.29;40.48;101100.22;4932697;28;45301;-47
2022/09/25 11:11:52;;;;;;;;;1.00;0.00;;;;;23.31;40.55;101097.50;4927356;28;45415;-54
2022/09/25 11:14:54;;;;;;;;;0.25;0.00;;;;;23.30;40.33;101106.38;4929757;28;45166;-51
2022/09/25 11:17:53;;;;;;;;;1.75;1.00;;;;;23.28;40.20;101114.41;4925034;28;47180;-54
2022/09/25 11:20:21;;;;;;;;;1.25;1.00;;;;;23.28;40.43;101098.53;4944852;28;45733;-51
2022/09/25 11:23:04;;;;;;;;;2.50;0.75;;;;;23.28;40.55;101113.56;4933568;28;45392;-47
2022/09/25 11:25:58;;;;;;;;;3.00;1.00;;;;;23.28;40.56;101105.63;4927921;28;45385;-52
2022/09/25 11:28:36;;;;;;;;;2.00;2.00;;;;;23.26;40.41;101110.16;4931898;28;46186;-52
2022/09/25 11:31:24;;;;;;;;;2.75;2.00;;;;;23.26;40.46;101115.44;4933766;28;45562;-51
2022/09/25 11:34:17;;;;;;;;;2.00;1.00;;;;;23.25;40.35;101117.25;4932012;28;45397;-51
2022/09/25 11:36:55;;;;;;;;;1.00;1.00;;;;;23.26;40.49;101118.09;4928911;28;45268;-53
2022/09/25 11:42:50;;;;;;;;;1.00;1.00;;;;;23.25;40.50;101111.97;4927645;28;45248;-51
2022/09/25 11:45:24;;;;;;;;;2.00;2.00;;;;;23.24;40.52;101117.34;4927107;28;45344;-50
2022/09/25 11:48:10;;;;;;;;;3.75;1.75;;;;;23.23;40.32;101110.34;4943203;28;45436;-47
2022/09/25 11:50:48;;;;;;;;;2.50;1.00;;;;;23.22;40.38;101112.16;4943843;28;46587;-50
2022/09/25 11:53:16;;;;;;;;;1.00;1.00;;;;;23.21;40.61;101093.72;4946630;28;45460;-53
2022/09/25 11:55:51;;;;;;;;;1.00;1.00;;;;;23.20;40.38;101108.75;4946634;28;45219;-54
2022/09/25 11:58:32;;;;;;;;;1.00;1.00;;;;;23.20;40.16;101105.28;4950374;28;45284;-50
2022/09/25 12:01:10;;;;;;;;;2.00;2.00;;;;;23.19;40.22;101096.47;4943906;28;46052;-52
2022/09/25 12:03:55;;;;;;;;;1.25;1.25;;;;;23.19;40.13;101099.13;4927263;28;45506;-49
2022/09/25 12:06:29;;;;;;;;;5.00;2.00;;;;;23.18;40.36;101100.03;4924359;28;45373;-47